sensor_id;sensor_type;location;lat;lon;timestamp;P1;durP1;ratioP1;P2;durP2;ratioP2
84266;SDS011;74414;51.098;13.716;2024-03-23T00:53:23;13.25;;;7.78;;
84266;SDS011;74414;51.098;13.716;2024-03-23T00:55:48;12.67;;;8.03;;
84266;SDS011;74414;51.098;13.716;2024-03-23T00:58:14;14.73;;;8.30;;
84266;SDS011;74414;51.098;13.716;2024-03-23T01:00:39;13.50;;;7.37;;
84266;SDS011;74414;51.098;13.716;2024-03-23T01:03:04;13.43;;;8.00;;
84266;SDS011;74414;51.098;13.716;2024-03-23T01:05:30;13.75;;;7.63;;
84266;SDS011;74414;51.098;13.716;2024-03-23T01:07:55;14.07;;;8.63;;
84266;SDS011;74414;51.098;13.716;2024-03-23T01:10:21;18.25;;;9.63;;
84266;SDS011;74414;51.098;13.716;2024-03-23T01:12:46;16.83;;;9.27;;
84266;SDS011;74414;51.098;13.716;2024-03-23T01:15:12;21.98;;;10.20;;
84266;SDS011;74414;51.098;13.716;2024-03-23T01:17:37;19.30;;;10.05;;
84266;SDS011;74414;51.098;13.716;2024-03-23T01:20:03;17.38;;;9.23;;
84266;SDS011;74414;51.098;13.716;2024-03-23T01:22:29;20.35;;;10.45;;
84266;SDS011;74414;51.098;13.716;2024-03-23T01:24:54;19.42;;;9.52;;
84266;SDS011;74414;51.098;13.716;2024-03-23T01:27:20;18.10;;;9.75;;
84266;SDS011;74414;51.098;13.716;2024-03-23T01:29:45;15.80;;;9.13;;
84266;SDS011;74414;51.098;13.716;2024-03-23T01:32:10;20.83;;;10.93;;
84266;SDS011;74414;51.098;13.716;2024-03-23T01:34:36;21.15;;;10.07;;
84266;SDS011;74414;51.098;13.716;2024-03-23T01:37:01;21.13;;;11.20;;
84266;SDS011;74414;51.098;13.716;2024-03-23T01:39:27;29.05;;;14.38;;
84266;SDS011;74414;51.098;13.716;2024-03-23T01:41:52;26.05;;;11.65;;
84266;SDS011;74414;51.098;13.716;2024-03-23T01:44:17;25.20;;;10.73;;
84266;SDS011;74414;51.098;13.716;2024-03-23T01:46:43;24.35;;;12.20;;
84266;SDS011;74414;51.098;13.716;2024-03-23T01:49:09;21.85;;;10.50;;
84266;SDS011;74414;51.098;13.716;2024-03-23T01:51:35;17.90;;;10.98;;
84266;SDS011;74414;51.098;13.716;2024-03-23T01:54:01;20.42;;;10.18;;
84266;SDS011;74414;51.098;13.716;2024-03-23T01:56:37;22.33;;;11.55;;
84266;SDS011;74414;51.098;13.716;2024-03-23T01:59:03;20.17;;;10.05;;
84266;SDS011;74414;51.098;13.716;2024-03-23T02:01:32;22.17;;;12.27;;
84266;SDS011;74414;51.098;13.716;2024-03-23T02:03:58;22.13;;;11.27;;
84266;SDS011;74414;51.098;13.716;2024-03-23T02:06:23;19.30;;;10.30;;
84266;SDS011;74414;51.098;13.716;2024-03-23T02:08:50;22.65;;;11.23;;
84266;SDS011;74414;51.098;13.716;2024-03-23T02:11:16;19.50;;;10.65;;
84266;SDS011;74414;51.098;13.716;2024-03-23T02:13:42;20.52;;;10.73;;
84266;SDS011;74414;51.098;13.716;2024-03-23T02:16:07;21.08;;;11.20;;
84266;SDS011;74414;51.098;13.716;2024-03-23T02:18:34;21.48;;;11.80;;
84266;SDS011;74414;51.098;13.716;2024-03-23T02:21:00;25.77;;;11.77;;
84266;SDS011;74414;51.098;13.716;2024-03-23T02:23:26;24.30;;;12.43;;
84266;SDS011;74414;51.098;13.716;2024-03-23T02:25:51;23.52;;;11.98;;
84266;SDS011;74414;51.098;13.716;2024-03-23T02:28:19;21.73;;;11.25;;
84266;SDS011;74414;51.098;13.716;2024-03-23T02:30:45;24.25;;;12.07;;
84266;SDS011;74414;51.098;13.716;2024-03-23T02:33:11;24.98;;;11.60;;
84266;SDS011;74414;51.098;13.716;2024-03-23T02:35:37;26.90;;;12.07;;
84266;SDS011;74414;51.098;13.716;2024-03-23T02:38:02;23.80;;;11.82;;
84266;SDS011;74414;51.098;13.716;2024-03-23T02:40:28;28.95;;;13.88;;
84266;SDS011;74414;51.098;13.716;2024-03-23T02:42:55;23.20;;;13.15;;
84266;SDS011;74414;51.098;13.716;2024-03-23T02:45:21;21.63;;;12.10;;
84266;SDS011;74414;51.098;13.716;2024-03-23T02:47:47;24.95;;;12.73;;
84266;SDS011;74414;51.098;13.716;2024-03-23T02:50:18;28.65;;;13.43;;
84266;SDS011;74414;51.098;13.716;2024-03-23T02:52:44;26.13;;;13.95;;
84266;SDS011;74414;51.098;13.716;2024-03-23T02:55:10;28.73;;;13.85;;
84266;SDS011;74414;51.098;13.716;2024-03-23T02:57:36;28.00;;;13.38;;
84266;SDS011;74414;51.098;13.716;2024-03-23T03:00:01;23.92;;;12.02;;
84266;SDS011;74414;51.098;13.716;2024-03-23T03:02:27;26.05;;;12.88;;
84266;SDS011;74414;51.098;13.716;2024-03-23T03:04:53;22.15;;;11.40;;
84266;SDS011;74414;51.098;13.716;2024-03-23T03:07:18;20.55;;;11.55;;
84266;SDS011;74414;51.098;13.716;2024-03-23T03:09:43;21.55;;;11.07;;
84266;SDS011;74414;51.098;13.716;2024-03-23T03:12:09;16.88;;;10.65;;
84266;SDS011;74414;51.098;13.716;2024-03-23T03:14:34;18.33;;;9.90;;
84266;SDS011;74414;51.098;13.716;2024-03-23T03:17:00;22.80;;;11.65;;
84266;SDS011;74414;51.098;13.716;2024-03-23T03:19:26;24.50;;;12.73;;
84266;SDS011;74414;51.098;13.716;2024-03-23T03:21:52;19.90;;;10.05;;
84266;SDS011;74414;51.098;13.716;2024-03-23T03:24:18;25.15;;;11.88;;
84266;SDS011;74414;51.098;13.716;2024-03-23T03:26:44;19.80;;;11.93;;
84266;SDS011;74414;51.098;13.716;2024-03-23T03:29:09;25.85;;;11.93;;
84266;SDS011;74414;51.098;13.716;2024-03-23T03:31:35;27.00;;;12.00;;
84266;SDS011;74414;51.098;13.716;2024-03-23T03:34:01;22.85;;;11.68;;
84266;SDS011;74414;51.098;13.716;2024-03-23T03:36:27;23.60;;;11.52;;
84266;SDS011;74414;51.098;13.716;2024-03-23T03:38:53;21.95;;;11.93;;
84266;SDS011;74414;51.098;13.716;2024-03-23T03:41:19;21.65;;;11.45;;
84266;SDS011;74414;51.098;13.716;2024-03-23T03:43:44;22.48;;;12.45;;
84266;SDS011;74414;51.098;13.716;2024-03-23T03:46:10;24.55;;;12.23;;
84266;SDS011;74414;51.098;13.716;2024-03-23T03:48:36;25.10;;;13.32;;
84266;SDS011;74414;51.098;13.716;2024-03-23T03:51:02;22.15;;;12.40;;
84266;SDS011;74414;51.098;13.716;2024-03-23T03:53:28;29.42;;;13.00;;
84266;SDS011;74414;51.098;13.716;2024-03-23T03:55:53;27.05;;;12.75;;
84266;SDS011;74414;51.098;13.716;2024-03-23T03:58:19;26.90;;;13.95;;
84266;SDS011;74414;51.098;13.716;2024-03-23T04:00:44;25.25;;;12.38;;
84266;SDS011;74414;51.098;13.716;2024-03-23T04:03:10;27.90;;;12.98;;
84266;SDS011;74414;51.098;13.716;2024-03-23T04:05:35;23.67;;;13.05;;
84266;SDS011;74414;51.098;13.716;2024-03-23T04:08:01;23.80;;;13.15;;
84266;SDS011;74414;51.098;13.716;2024-03-23T04:10:26;26.98;;;14.07;;
84266;SDS011;74414;51.098;13.716;2024-03-23T04:12:52;29.23;;;13.88;;
84266;SDS011;74414;51.098;13.716;2024-03-23T04:15:19;28.48;;;12.75;;
84266;SDS011;74414;51.098;13.716;2024-03-23T04:17:44;31.17;;;13.95;;
84266;SDS011;74414;51.098;13.716;2024-03-23T04:20:10;29.58;;;15.68;;
84266;SDS011;74414;51.098;13.716;2024-03-23T04:22:37;32.70;;;15.70;;
84266;SDS011;74414;51.098;13.716;2024-03-23T04:25:02;32.03;;;16.35;;
84266;SDS011;74414;51.098;13.716;2024-03-23T04:27:32;31.20;;;16.60;;
84266;SDS011;74414;51.098;13.716;2024-03-23T04:30:00;37.03;;;15.80;;
84266;SDS011;74414;51.098;13.716;2024-03-23T04:32:26;31.75;;;16.15;;
84266;SDS011;74414;51.098;13.716;2024-03-23T04:34:52;27.52;;;14.07;;
84266;SDS011;74414;51.098;13.716;2024-03-23T04:37:18;33.50;;;14.82;;
84266;SDS011;74414;51.098;13.716;2024-03-23T04:39:45;34.85;;;16.02;;
84266;SDS011;74414;51.098;13.716;2024-03-23T04:42:10;34.42;;;16.20;;
84266;SDS011;74414;51.098;13.716;2024-03-23T04:44:37;33.42;;;16.42;;
84266;SDS011;74414;51.098;13.716;2024-03-23T04:47:02;33.78;;;16.73;;
84266;SDS011;74414;51.098;13.716;2024-03-23T04:49:28;34.05;;;16.70;;
84266;SDS011;74414;51.098;13.716;2024-03-23T04:51:53;37.08;;;18.08;;
84266;SDS011;74414;51.098;13.716;2024-03-23T04:54:19;39.13;;;18.63;;
84266;SDS011;74414;51.098;13.716;2024-03-23T04:56:45;39.38;;;17.58;;
84266;SDS011;74414;51.098;13.716;2024-03-23T04:59:11;37.33;;;18.58;;
84266;SDS011;74414;51.098;13.716;2024-03-23T05:01:36;38.50;;;18.55;;
84266;SDS011;74414;51.098;13.716;2024-03-23T05:04:03;45.60;;;19.95;;
84266;SDS011;74414;51.098;13.716;2024-03-23T05:06:29;42.33;;;19.42;;
84266;SDS011;74414;51.098;13.716;2024-03-23T05:08:54;45.43;;;20.03;;
84266;SDS011;74414;51.098;13.716;2024-03-23T05:11:19;44.37;;;18.70;;
84266;SDS011;74414;51.098;13.716;2024-03-23T05:13:45;45.33;;;19.40;;
84266;SDS011;74414;51.098;13.716;2024-03-23T05:16:11;36.22;;;17.45;;
84266;SDS011;74414;51.098;13.716;2024-03-23T05:18:37;38.00;;;18.25;;
84266;SDS011;74414;51.098;13.716;2024-03-23T05:21:02;43.67;;;19.70;;
84266;SDS011;74414;51.098;13.716;2024-03-23T05:23:28;36.13;;;17.58;;
84266;SDS011;74414;51.098;13.716;2024-03-23T05:25:54;38.22;;;17.80;;
84266;SDS011;74414;51.098;13.716;2024-03-23T05:28:19;38.85;;;17.73;;
84266;SDS011;74414;51.098;13.716;2024-03-23T05:30:52;36.33;;;16.77;;
84266;SDS011;74414;51.098;13.716;2024-03-23T05:33:18;39.75;;;18.70;;
84266;SDS011;74414;51.098;13.716;2024-03-23T05:35:45;37.15;;;16.85;;
84266;SDS011;74414;51.098;13.716;2024-03-23T05:38:10;37.20;;;16.95;;
84266;SDS011;74414;51.098;13.716;2024-03-23T05:40:35;36.60;;;17.38;;
84266;SDS011;74414;51.098;13.716;2024-03-23T05:43:02;37.67;;;16.48;;
84266;SDS011;74414;51.098;13.716;2024-03-23T05:45:28;34.65;;;17.23;;
84266;SDS011;74414;51.098;13.716;2024-03-23T05:47:54;33.47;;;15.82;;
84266;SDS011;74414;51.098;13.716;2024-03-23T05:50:22;33.13;;;16.33;;
84266;SDS011;74414;51.098;13.716;2024-03-23T05:52:48;33.53;;;15.60;;
84266;SDS011;74414;51.098;13.716;2024-03-23T05:55:14;31.63;;;15.07;;
84266;SDS011;74414;51.098;13.716;2024-03-23T05:57:40;31.90;;;15.10;;
84266;SDS011;74414;51.098;13.716;2024-03-23T06:00:05;34.00;;;15.93;;
84266;SDS011;74414;51.098;13.716;2024-03-23T06:02:35;34.47;;;16.75;;
84266;SDS011;74414;51.098;13.716;2024-03-23T06:05:01;31.80;;;15.32;;
84266;SDS011;74414;51.098;13.716;2024-03-23T06:07:27;35.05;;;16.08;;
84266;SDS011;74414;51.098;13.716;2024-03-23T06:09:52;35.28;;;16.20;;
84266;SDS011;74414;51.098;13.716;2024-03-23T06:12:18;38.53;;;17.90;;
84266;SDS011;74414;51.098;13.716;2024-03-23T06:14:43;41.60;;;17.83;;
84266;SDS011;74414;51.098;13.716;2024-03-23T06:17:08;42.10;;;19.57;;
84266;SDS011;74414;51.098;13.716;2024-03-23T06:19:33;41.10;;;18.43;;
84266;SDS011;74414;51.098;13.716;2024-03-23T06:21:59;40.08;;;19.70;;
84266;SDS011;74414;51.098;13.716;2024-03-23T06:24:24;50.90;;;21.20;;
84266;SDS011;74414;51.098;13.716;2024-03-23T06:26:50;43.30;;;19.90;;
84266;SDS011;74414;51.098;13.716;2024-03-23T06:29:15;42.88;;;19.67;;
84266;SDS011;74414;51.098;13.716;2024-03-23T06:31:41;43.03;;;20.85;;
84266;SDS011;74414;51.098;13.716;2024-03-23T06:34:06;42.50;;;19.13;;
84266;SDS011;74414;51.098;13.716;2024-03-23T06:36:31;37.45;;;17.40;;
84266;SDS011;74414;51.098;13.716;2024-03-23T06:38:58;43.22;;;19.52;;
84266;SDS011;74414;51.098;13.716;2024-03-23T06:41:24;38.42;;;20.10;;
84266;SDS011;74414;51.098;13.716;2024-03-23T06:43:49;38.58;;;18.27;;
84266;SDS011;74414;51.098;13.716;2024-03-23T06:46:15;39.07;;;18.63;;
84266;SDS011;74414;51.098;13.716;2024-03-23T06:48:40;38.90;;;17.83;;
84266;SDS011;74414;51.098;13.716;2024-03-23T06:51:05;46.33;;;19.97;;
84266;SDS011;74414;51.098;13.716;2024-03-23T06:53:31;41.22;;;19.25;;
84266;SDS011;74414;51.098;13.716;2024-03-23T06:55:57;46.30;;;21.48;;
84266;SDS011;74414;51.098;13.716;2024-03-23T06:58:23;40.40;;;19.00;;
84266;SDS011;74414;51.098;13.716;2024-03-23T07:00:49;36.67;;;17.70;;
84266;SDS011;74414;51.098;13.716;2024-03-23T07:03:16;38.88;;;18.52;;
84266;SDS011;74414;51.098;13.716;2024-03-23T07:05:42;45.90;;;19.70;;
84266;SDS011;74414;51.098;13.716;2024-03-23T07:08:07;41.22;;;18.13;;
84266;SDS011;74414;51.098;13.716;2024-03-23T07:10:33;43.35;;;19.30;;
84266;SDS011;74414;51.098;13.716;2024-03-23T07:12:58;41.50;;;19.05;;
84266;SDS011;74414;51.098;13.716;2024-03-23T07:15:24;41.58;;;19.00;;
84266;SDS011;74414;51.098;13.716;2024-03-23T07:17:49;51.35;;;20.95;;
84266;SDS011;74414;51.098;13.716;2024-03-23T07:20:15;44.63;;;19.27;;
84266;SDS011;74414;51.098;13.716;2024-03-23T07:22:40;45.00;;;19.75;;
84266;SDS011;74414;51.098;13.716;2024-03-23T07:25:06;44.70;;;19.95;;
84266;SDS011;74414;51.098;13.716;2024-03-23T07:27:32;51.08;;;20.70;;
84266;SDS011;74414;51.098;13.716;2024-03-23T07:29:57;52.35;;;21.42;;
84266;SDS011;74414;51.098;13.716;2024-03-23T07:32:23;50.15;;;21.20;;
84266;SDS011;74414;51.098;13.716;2024-03-23T07:34:48;43.20;;;18.95;;
84266;SDS011;74414;51.098;13.716;2024-03-23T07:37:13;40.77;;;19.10;;
84266;SDS011;74414;51.098;13.716;2024-03-23T07:39:39;44.80;;;19.30;;
84266;SDS011;74414;51.098;13.716;2024-03-23T07:42:04;38.08;;;18.00;;
84266;SDS011;74414;51.098;13.716;2024-03-23T07:44:30;44.60;;;19.17;;
84266;SDS011;74414;51.098;13.716;2024-03-23T07:46:56;42.97;;;18.73;;
84266;SDS011;74414;51.098;13.716;2024-03-23T07:49:21;43.78;;;19.42;;
84266;SDS011;74414;51.098;13.716;2024-03-23T07:51:47;42.38;;;18.92;;
84266;SDS011;74414;51.098;13.716;2024-03-23T07:54:12;41.15;;;20.83;;
84266;SDS011;74414;51.098;13.716;2024-03-23T07:56:37;44.10;;;19.13;;
84266;SDS011;74414;51.098;13.716;2024-03-23T07:59:03;49.47;;;20.07;;
84266;SDS011;74414;51.098;13.716;2024-03-23T08:01:28;54.15;;;21.95;;
84266;SDS011;74414;51.098;13.716;2024-03-23T08:03:54;51.35;;;21.50;;
84266;SDS011;74414;51.098;13.716;2024-03-23T08:06:20;56.10;;;22.05;;
84266;SDS011;74414;51.098;13.716;2024-03-23T08:08:48;59.03;;;22.85;;
84266;SDS011;74414;51.098;13.716;2024-03-23T08:11:14;46.15;;;20.30;;
84266;SDS011;74414;51.098;13.716;2024-03-23T08:13:40;46.65;;;20.55;;
84266;SDS011;74414;51.098;13.716;2024-03-23T08:16:06;42.08;;;19.27;;
84266;SDS011;74414;51.098;13.716;2024-03-23T08:18:33;39.00;;;17.98;;
84266;SDS011;74414;51.098;13.716;2024-03-23T08:21:00;40.03;;;19.33;;
84266;SDS011;74414;51.098;13.716;2024-03-23T08:23:30;39.35;;;20.25;;
84266;SDS011;74414;51.098;13.716;2024-03-23T08:26:02;43.58;;;19.67;;
84266;SDS011;74414;51.098;13.716;2024-03-23T08:28:38;37.97;;;19.70;;
84266;SDS011;74414;51.098;13.716;2024-03-23T08:31:06;39.05;;;19.55;;
84266;SDS011;74414;51.098;13.716;2024-03-23T08:33:33;40.80;;;19.48;;
84266;SDS011;74414;51.098;13.716;2024-03-23T08:35:59;39.88;;;19.80;;
84266;SDS011;74414;51.098;13.716;2024-03-23T08:38:26;41.13;;;19.77;;
84266;SDS011;74414;51.098;13.716;2024-03-23T08:41:02;37.88;;;18.80;;
84266;SDS011;74414;51.098;13.716;2024-03-23T08:43:29;38.75;;;19.15;;
84266;SDS011;74414;51.098;13.716;2024-03-23T08:48:34;38.78;;;19.33;;
84266;SDS011;74414;51.098;13.716;2024-03-23T08:51:04;39.55;;;18.40;;
84266;SDS011;74414;51.098;13.716;2024-03-23T08:53:30;43.65;;;19.83;;
84266;SDS011;74414;51.098;13.716;2024-03-23T08:55:56;43.17;;;20.80;;
84266;SDS011;74414;51.098;13.716;2024-03-23T08:58:23;40.33;;;19.67;;
84266;SDS011;74414;51.098;13.716;2024-03-23T09:00:50;42.78;;;20.30;;
84266;SDS011;74414;51.098;13.716;2024-03-23T09:03:16;34.00;;;17.48;;
84266;SDS011;74414;51.098;13.716;2024-03-23T09:05:41;32.80;;;17.40;;
84266;SDS011;74414;51.098;13.716;2024-03-23T09:08:07;32.33;;;16.63;;
84266;SDS011;74414;51.098;13.716;2024-03-23T09:10:42;27.73;;;15.75;;
84266;SDS011;74414;51.098;13.716;2024-03-23T09:13:08;27.27;;;14.93;;
84266;SDS011;74414;51.098;13.716;2024-03-23T09:15:34;28.73;;;14.23;;
84266;SDS011;74414;51.098;13.716;2024-03-23T09:18:00;29.58;;;14.55;;
84266;SDS011;74414;51.098;13.716;2024-03-23T09:20:26;31.67;;;16.10;;
84266;SDS011;74414;51.098;13.716;2024-03-23T09:22:52;28.40;;;15.17;;
84266;SDS011;74414;51.098;13.716;2024-03-23T09:25:17;28.47;;;15.87;;
84266;SDS011;74414;51.098;13.716;2024-03-23T09:27:42;33.53;;;16.58;;
84266;SDS011;74414;51.098;13.716;2024-03-23T09:30:08;23.83;;;13.37;;
84266;SDS011;74414;51.098;13.716;2024-03-23T09:32:35;20.27;;;12.45;;
84266;SDS011;74414;51.098;13.716;2024-03-23T09:35:00;23.83;;;13.02;;
84266;SDS011;74414;51.098;13.716;2024-03-23T09:37:25;17.95;;;10.43;;
84266;SDS011;74414;51.098;13.716;2024-03-23T09:39:51;18.57;;;10.30;;
84266;SDS011;74414;51.098;13.716;2024-03-23T09:42:16;15.88;;;9.45;;
84266;SDS011;74414;51.098;13.716;2024-03-23T09:44:42;16.23;;;9.27;;
84266;SDS011;74414;51.098;13.716;2024-03-23T09:47:07;16.25;;;8.82;;
84266;SDS011;74414;51.098;13.716;2024-03-23T09:49:33;16.60;;;9.88;;
84266;SDS011;74414;51.098;13.716;2024-03-23T09:52:01;16.17;;;7.95;;
84266;SDS011;74414;51.098;13.716;2024-03-23T09:54:27;18.75;;;7.85;;
84266;SDS011;74414;51.098;13.716;2024-03-23T09:56:53;6.85;;;3.78;;
84266;SDS011;74414;51.098;13.716;2024-03-23T09:59:18;5.03;;;2.10;;
84266;SDS011;74414;51.098;13.716;2024-03-23T10:01:43;4.07;;;2.07;;
84266;SDS011;74414;51.098;13.716;2024-03-23T10:04:09;4.43;;;1.73;;
84266;SDS011;74414;51.098;13.716;2024-03-23T10:06:34;3.80;;;2.07;;
84266;SDS011;74414;51.098;13.716;2024-03-23T10:09:00;5.57;;;2.00;;
84266;SDS011;74414;51.098;13.716;2024-03-23T10:11:25;6.40;;;1.57;;
84266;SDS011;74414;51.098;13.716;2024-03-23T10:13:52;2.38;;;1.10;;
84266;SDS011;74414;51.098;13.716;2024-03-23T10:16:21;1.48;;;0.88;;
84266;SDS011;74414;51.098;13.716;2024-03-23T10:18:48;0.50;;;0.40;;
84266;SDS011;74414;51.098;13.716;2024-03-23T10:21:14;1.25;;;0.52;;
84266;SDS011;74414;51.098;13.716;2024-03-23T10:23:41;0.98;;;0.57;;
84266;SDS011;74414;51.098;13.716;2024-03-23T10:29:17;0.47;;;0.43;;
84266;SDS011;74414;51.098;13.716;2024-03-23T10:31:37;2.20;;;0.55;;
84266;SDS011;74414;51.098;13.716;2024-03-23T10:34:06;0.65;;;0.40;;
84266;SDS011;74414;51.098;13.716;2024-03-23T10:36:32;0.30;;;0.30;;
84266;SDS011;74414;51.098;13.716;2024-03-23T10:38:59;0.57;;;0.52;;
84266;SDS011;74414;51.098;13.716;2024-03-23T10:41:28;0.45;;;0.40;;
84266;SDS011;74414;51.098;13.716;2024-03-23T10:43:54;1.05;;;0.40;;
84266;SDS011;74414;51.098;13.716;2024-03-23T10:46:21;0.50;;;0.50;;
84266;SDS011;74414;51.098;13.716;2024-03-23T10:48:46;0.60;;;0.60;;
84266;SDS011;74414;51.098;13.716;2024-03-23T10:51:12;0.60;;;0.60;;
84266;SDS011;74414;51.098;13.716;2024-03-23T10:53:39;0.75;;;0.50;;
84266;SDS011;74414;51.098;13.716;2024-03-23T10:56:05;1.30;;;0.85;;
84266;SDS011;74414;51.098;13.716;2024-03-23T10:58:35;2.33;;;1.17;;
84266;SDS011;74414;51.098;13.716;2024-03-23T11:01:12;1.10;;;0.90;;
84266;SDS011;74414;51.098;13.716;2024-03-23T11:03:39;1.00;;;0.82;;
84266;SDS011;74414;51.098;13.716;2024-03-23T11:06:09;1.10;;;0.93;;
84266;SDS011;74414;51.098;13.716;2024-03-23T11:08:38;1.33;;;0.80;;
84266;SDS011;74414;51.098;13.716;2024-03-23T11:11:18;1.05;;;0.80;;
84266;SDS011;74414;51.098;13.716;2024-03-23T11:13:45;1.10;;;1.00;;
84266;SDS011;74414;51.098;13.716;2024-03-23T11:16:16;0.68;;;0.68;;
84266;SDS011;74414;51.098;13.716;2024-03-23T11:18:46;0.50;;;0.50;;
84266;SDS011;74414;51.098;13.716;2024-03-23T11:21:51;2.47;;;0.60;;
84266;SDS011;74414;51.098;13.716;2024-03-23T11:24:16;0.93;;;0.80;;
84266;SDS011;74414;51.098;13.716;2024-03-23T11:26:41;0.70;;;0.70;;
84266;SDS011;74414;51.098;13.716;2024-03-23T11:29:10;1.13;;;0.73;;
84266;SDS011;74414;51.098;13.716;2024-03-23T11:31:54;1.35;;;0.50;;
84266;SDS011;74414;51.098;13.716;2024-03-23T11:34:20;0.40;;;0.40;;
84266;SDS011;74414;51.098;13.716;2024-03-23T11:36:45;0.40;;;0.40;;
84266;SDS011;74414;51.098;13.716;2024-03-23T11:44:19;0.82;;;0.80;;
84266;SDS011;74414;51.098;13.716;2024-03-23T11:46:47;0.77;;;0.75;;
84266;SDS011;74414;51.098;13.716;2024-03-23T11:49:26;0.95;;;0.63;;
84266;SDS011;74414;51.098;13.716;2024-03-23T11:51:52;0.60;;;0.60;;
84266;SDS011;74414;51.098;13.716;2024-03-23T11:54:22;0.70;;;0.60;;
84266;SDS011;74414;51.098;13.716;2024-03-23T11:56:58;0.93;;;0.70;;
84266;SDS011;74414;51.098;13.716;2024-03-23T11:59:38;0.98;;;0.80;;
84266;SDS011;74414;51.098;13.716;2024-03-23T12:02:09;4.78;;;0.75;;
84266;SDS011;74414;51.098;13.716;2024-03-23T12:04:36;1.10;;;0.90;;
84266;SDS011;74414;51.098;13.716;2024-03-23T12:07:09;1.20;;;1.10;;
84266;SDS011;74414;51.098;13.716;2024-03-23T12:09:36;1.60;;;1.40;;
84266;SDS011;74414;51.098;13.716;2024-03-23T12:12:06;1.58;;;1.27;;
84266;SDS011;74414;51.098;13.716;2024-03-23T12:14:32;0.70;;;0.60;;
84266;SDS011;74414;51.098;13.716;2024-03-23T12:17:06;0.90;;;0.70;;
84266;SDS011;74414;51.098;13.716;2024-03-23T12:19:39;0.60;;;0.60;;
84266;SDS011;74414;51.098;13.716;2024-03-23T12:22:05;0.80;;;0.70;;
84266;SDS011;74414;51.098;13.716;2024-03-23T12:24:31;1.50;;;0.73;;
84266;SDS011;74414;51.098;13.716;2024-03-23T12:26:59;1.83;;;1.02;;
84266;SDS011;74414;51.098;13.716;2024-03-23T12:29:29;1.40;;;0.95;;
84266;SDS011;74414;51.098;13.716;2024-03-23T12:31:56;1.17;;;1.00;;
84266;SDS011;74414;51.098;13.716;2024-03-23T12:34:25;1.20;;;0.90;;
84266;SDS011;74414;51.098;13.716;2024-03-23T12:36:51;1.52;;;1.10;;
84266;SDS011;74414;51.098;13.716;2024-03-23T12:39:16;2.07;;;1.30;;
84266;SDS011;74414;51.098;13.716;2024-03-23T12:41:42;2.03;;;1.70;;
84266;SDS011;74414;51.098;13.716;2024-03-23T12:44:07;1.50;;;1.10;;
84266;SDS011;74414;51.098;13.716;2024-03-23T12:46:36;1.58;;;1.30;;
84266;SDS011;74414;51.098;13.716;2024-03-23T12:49:02;2.20;;;1.95;;
84266;SDS011;74414;51.098;13.716;2024-03-23T12:51:27;1.63;;;1.53;;
84266;SDS011;74414;51.098;13.716;2024-03-23T12:53:52;2.20;;;1.60;;
84266;SDS011;74414;51.098;13.716;2024-03-23T12:56:17;2.40;;;1.50;;
84266;SDS011;74414;51.098;13.716;2024-03-23T12:58:43;2.10;;;1.77;;
84266;SDS011;74414;51.098;13.716;2024-03-23T13:01:09;2.43;;;2.00;;
84266;SDS011;74414;51.098;13.716;2024-03-23T13:03:34;4.32;;;2.00;;
84266;SDS011;74414;51.098;13.716;2024-03-23T13:06:00;2.75;;;2.28;;
84266;SDS011;74414;51.098;13.716;2024-03-23T13:08:25;3.10;;;2.47;;
84266;SDS011;74414;51.098;13.716;2024-03-23T13:10:53;2.40;;;2.20;;
84266;SDS011;74414;51.098;13.716;2024-03-23T13:13:20;2.85;;;2.47;;
84266;SDS011;74414;51.098;13.716;2024-03-23T13:15:50;2.63;;;2.17;;
84266;SDS011;74414;51.098;13.716;2024-03-23T13:18:15;2.95;;;2.47;;
84266;SDS011;74414;51.098;13.716;2024-03-23T13:20:41;2.55;;;1.98;;
84266;SDS011;74414;51.098;13.716;2024-03-23T13:23:07;4.03;;;2.00;;
84266;SDS011;74414;51.098;13.716;2024-03-23T13:25:32;2.13;;;1.90;;
84266;SDS011;74414;51.098;13.716;2024-03-23T13:27:58;2.17;;;1.63;;
84266;SDS011;74414;51.098;13.716;2024-03-23T13:30:23;2.35;;;1.60;;
84266;SDS011;74414;51.098;13.716;2024-03-23T13:32:49;2.90;;;1.20;;
84266;SDS011;74414;51.098;13.716;2024-03-23T13:35:15;3.63;;;2.03;;
84266;SDS011;74414;51.098;13.716;2024-03-23T13:37:40;2.87;;;1.40;;
84266;SDS011;74414;51.098;13.716;2024-03-23T13:40:06;2.30;;;1.50;;
84266;SDS011;74414;51.098;13.716;2024-03-23T13:42:32;2.97;;;1.40;;
84266;SDS011;74414;51.098;13.716;2024-03-23T13:44:58;3.00;;;1.23;;
84266;SDS011;74414;51.098;13.716;2024-03-23T13:47:23;5.20;;;1.73;;
84266;SDS011;74414;51.098;13.716;2024-03-23T13:49:48;3.73;;;1.63;;
84266;SDS011;74414;51.098;13.716;2024-03-23T13:52:14;2.38;;;1.30;;
84266;SDS011;74414;51.098;13.716;2024-03-23T13:54:39;5.27;;;1.87;;
84266;SDS011;74414;51.098;13.716;2024-03-23T13:57:10;2.75;;;1.50;;
84266;SDS011;74414;51.098;13.716;2024-03-23T13:59:35;7.43;;;3.20;;
84266;SDS011;74414;51.098;13.716;2024-03-23T14:02:01;4.35;;;1.40;;
84266;SDS011;74414;51.098;13.716;2024-03-23T14:04:26;2.50;;;1.20;;
84266;SDS011;74414;51.098;13.716;2024-03-23T14:06:51;3.33;;;1.43;;
84266;SDS011;74414;51.098;13.716;2024-03-23T14:09:17;2.30;;;1.47;;
84266;SDS011;74414;51.098;13.716;2024-03-23T14:11:46;3.80;;;1.38;;
84266;SDS011;74414;51.098;13.716;2024-03-23T14:14:12;3.30;;;1.40;;
84266;SDS011;74414;51.098;13.716;2024-03-23T14:16:37;2.90;;;1.10;;
84266;SDS011;74414;51.098;13.716;2024-03-23T14:19:03;3.72;;;1.23;;
84266;SDS011;74414;51.098;13.716;2024-03-23T14:21:30;3.17;;;1.20;;
84266;SDS011;74414;51.098;13.716;2024-03-23T14:23:56;5.00;;;1.05;;
84266;SDS011;74414;51.098;13.716;2024-03-23T14:26:21;3.87;;;1.50;;
84266;SDS011;74414;51.098;13.716;2024-03-23T14:28:46;2.67;;;1.30;;
84266;SDS011;74414;51.098;13.716;2024-03-23T14:31:12;5.13;;;1.42;;
84266;SDS011;74414;51.098;13.716;2024-03-23T14:33:37;4.20;;;1.50;;
84266;SDS011;74414;51.098;13.716;2024-03-23T14:36:04;4.90;;;2.00;;
84266;SDS011;74414;51.098;13.716;2024-03-23T14:38:29;10.98;;;3.42;;
84266;SDS011;74414;51.098;13.716;2024-03-23T14:40:58;8.33;;;2.40;;
84266;SDS011;74414;51.098;13.716;2024-03-23T14:43:25;15.93;;;4.78;;
84266;SDS011;74414;51.098;13.716;2024-03-23T14:48:35;4.57;;;1.48;;
84266;SDS011;74414;51.098;13.716;2024-03-23T14:51:01;8.45;;;2.20;;
84266;SDS011;74414;51.098;13.716;2024-03-23T14:53:31;8.68;;;2.95;;
84266;SDS011;74414;51.098;13.716;2024-03-23T14:56:01;4.60;;;1.67;;
84266;SDS011;74414;51.098;13.716;2024-03-23T14:58:27;8.43;;;3.10;;
84266;SDS011;74414;51.098;13.716;2024-03-23T15:00:59;3.05;;;1.80;;
84266;SDS011;74414;51.098;13.716;2024-03-23T15:03:25;13.93;;;4.57;;
84266;SDS011;74414;51.098;13.716;2024-03-23T15:05:52;8.05;;;2.92;;
84266;SDS011;74414;51.098;13.716;2024-03-23T15:08:21;14.80;;;6.57;;
84266;SDS011;74414;51.098;13.716;2024-03-23T15:10:46;8.93;;;2.50;;
84266;SDS011;74414;51.098;13.716;2024-03-23T15:13:11;21.57;;;8.27;;
84266;SDS011;74414;51.098;13.716;2024-03-23T15:15:40;9.25;;;3.75;;
84266;SDS011;74414;51.098;13.716;2024-03-23T15:18:08;4.78;;;2.65;;
84266;SDS011;74414;51.098;13.716;2024-03-23T15:20:34;2.75;;;1.42;;